Time;durP1;ratioP1;P1;durP2;ratioP2;P2;SDS_P1;SDS_P2;PMS_P1;PMS_P2;Temp;Humidity;BMP_temperature;BMP_pressure;BME280_temperature;BME280_humidity;BME280_pressure;Samples;Min_cycle;Max_cycle;Signal;HPM_P1;HPM_P2
2022/08/26 00:02:05;;;;;;;13.23;5.30;;;18.60;99.90;;;;;;4994797;28;20400;-83
2022/08/26 00:04:34;;;;;;;11.07;4.70;;;18.50;99.90;;;;;;4993782;28;20504;-83
2022/08/26 00:07:02;;;;;;;8.07;5.10;;;18.60;99.90;;;;;;4994927;28;20420;-83
2022/08/26 00:09:31;;;;;;;8.80;4.87;;;18.50;99.90;;;;;;5009642;28;20421;-84
2022/08/26 00:12:05;;;;;;;9.60;4.80;;;18.50;99.90;;;;;;5009138;28;20832;-84
2022/08/26 00:14:33;;;;;;;9.20;5.13;;;18.50;99.90;;;;;;4993569;28;20424;-84
2022/08/26 00:17:00;;;;;;;10.02;4.63;;;18.50;99.90;;;;;;4990532;28;20392;-84
2022/08/26 00:19:28;;;;;;;7.80;4.50;;;18.50;99.90;;;;;;4991126;28;20403;-84
2022/08/26 00:21:56;;;;;;;10.95;4.85;;;18.50;99.90;;;;;;4994044;28;20400;-83
2022/08/26 00:24:27;;;;;;;6.90;4.43;;;18.50;99.90;;;;;;4994744;28;20536;-82
2022/08/26 00:26:57;;;;;;;8.13;4.65;;;18.50;99.90;;;;;;4993951;28;20424;-84
2022/08/26 00:29:25;;;;;;;9.10;4.70;;;18.50;99.90;;;;;;4986470;28;20442;-84
2022/08/26 00:31:53;;;;;;;6.32;4.45;;;18.50;99.90;;;;;;4986499;28;20463;-84
2022/08/26 00:34:20;;;;;;;7.78;4.40;;;18.40;99.90;;;;;;4992105;28;20465;-83
2022/08/26 00:36:48;;;;;;;7.35;4.78;;;18.40;99.90;;;;;;5009507;28;20423;-83
2022/08/26 00:39:19;;;;;;;9.70;4.57;;;18.40;99.90;;;;;;4992979;28;20455;-83
2022/08/26 00:41:47;;;;;;;7.75;4.93;;;18.30;99.90;;;;;;4999383;28;20460;-84
2022/08/26 00:44:15;;;;;;;6.95;4.30;;;18.30;99.90;;;;;;4992942;28;20507;-84
2022/08/26 00:46:59;;;;;;;9.43;4.70;;;18.30;99.90;;;;;;4993208;28;21048;-84
2022/08/26 00:49:37;;;;;;;9.33;4.30;;;18.30;99.90;;;;;;4991582;28;20404;-82
2022/08/26 00:52:09;;;;;;;10.07;4.47;;;18.30;99.90;;;;;;4993948;28;20393;-83
2022/08/26 00:55:01;;;;;;;8.82;4.40;;;18.30;99.90;;;;;;4994661;28;20476;-84
2022/08/26 00:57:30;;;;;;;9.82;4.72;;;18.30;99.90;;;;;;4993947;28;20405;-84
2022/08/26 01:00:00;;;;;;;12.52;4.97;;;18.20;99.90;;;;;;4994245;28;20938;-84
2022/08/26 01:02:28;;;;;;;9.93;4.47;;;18.20;99.90;;;;;;4994341;28;20791;-83
2022/08/26 01:05:00;;;;;;;7.68;3.92;;;18.30;99.90;;;;;;4993675;28;20384;-85
2022/08/26 01:07:32;;;;;;;8.70;4.25;;;18.30;99.90;;;;;;4994226;28;20400;-84
2022/08/26 01:10:05;;;;;;;6.63;4.43;;;18.20;99.90;;;;;;4991055;28;20398;-85
2022/08/26 01:12:40;;;;;;;10.00;4.93;;;18.10;99.90;;;;;;4991328;28;20385;-84
2022/08/26 01:15:14;;;;;;;9.02;5.03;;;18.10;99.90;;;;;;4994237;28;20389;-84
2022/08/26 01:17:42;;;;;;;9.13;4.95;;;18.00;99.90;;;;;;4986638;28;20698;-85
2022/08/26 01:20:37;;;;;;;7.85;5.00;;;17.90;99.90;;;;;;4993689;28;20455;-83
2022/08/26 01:23:08;;;;;;;11.70;5.47;;;17.90;99.90;;;;;;4970135;28;20780;-83
2022/08/26 01:25:46;;;;;;;7.95;5.60;;;17.80;99.90;;;;;;4994264;28;20859;-83
2022/08/26 01:28:21;;;;;;;7.93;4.88;;;17.80;99.90;;;;;;4993576;28;20417;-83
2022/08/26 01:30:51;;;;;;;7.82;4.35;;;17.70;99.90;;;;;;4992481;28;20437;-84
2022/08/26 01:33:25;;;;;;;6.95;4.45;;;17.70;99.90;;;;;;4976148;28;20425;-84
2022/08/26 01:35:53;;;;;;;10.40;5.50;;;17.70;99.90;;;;;;5004583;28;20815;-84
2022/08/26 01:38:21;;;;;;;8.10;4.32;;;17.70;99.90;;;;;;4988779;28;20493;-83
2022/08/26 01:40:50;;;;;;;6.13;4.57;;;17.60;99.90;;;;;;4989650;28;20433;-83
2022/08/26 01:43:25;;;;;;;8.98;5.30;;;17.60;99.90;;;;;;4998799;28;20408;-84
2022/08/26 01:45:55;;;;;;;8.55;5.10;;;17.60;99.90;;;;;;4993039;28;20405;-83
2022/08/26 01:48:27;;;;;;;8.32;4.93;;;17.50;99.90;;;;;;5008476;28;20460;-83
2022/08/26 01:50:56;;;;;;;6.82;4.35;;;17.50;99.90;;;;;;4993104;28;20404;-82
2022/08/26 01:53:25;;;;;;;8.10;4.10;;;17.50;99.90;;;;;;4991623;28;20488;-84
2022/08/26 01:55:59;;;;;;;9.10;4.10;;;17.50;99.90;;;;;;4989440;28;20411;-82
2022/08/26 01:58:37;;;;;;;11.73;4.90;;;17.60;99.90;;;;;;4991759;28;20420;-84
2022/08/26 02:01:05;;;;;;;8.75;4.70;;;17.60;99.90;;;;;;4991626;28;20443;-84
2022/08/26 02:03:45;;;;;;;8.38;4.50;;;17.60;99.90;;;;;;4991745;28;20887;-84
2022/08/26 02:06:13;;;;;;;10.40;4.93;;;17.60;99.90;;;;;;4991587;28;20408;-83
2022/08/26 02:08:45;;;;;;;7.93;5.00;;;17.50;99.90;;;;;;4992789;28;20405;-84
2022/08/26 02:11:13;;;;;;;9.00;5.32;;;17.40;99.90;;;;;;4981243;28;20441;-85
2022/08/26 02:13:52;;;;;;;9.38;5.15;;;17.40;99.90;;;;;;4997277;28;20405;-84
2022/08/26 02:16:25;;;;;;;7.28;5.70;;;17.50;99.90;;;;;;4975477;28;20455;-83
2022/08/26 02:18:56;;;;;;;11.27;5.60;;;17.40;99.90;;;;;;4993169;28;20875;-85
2022/08/26 02:21:24;;;;;;;7.90;5.95;;;17.40;99.90;;;;;;4990713;28;20549;-83
2022/08/26 02:23:52;;;;;;;8.77;5.33;;;17.40;99.90;;;;;;5007290;28;20408;-83
2022/08/26 02:26:26;;;;;;;9.90;6.47;;;17.40;99.90;;;;;;4991393;28;20408;-83
2022/08/26 02:29:04;;;;;;;7.43;5.30;;;17.20;99.90;;;;;;4991377;28;20413;-82
2022/08/26 02:31:33;;;;;;;8.18;6.20;;;17.30;99.90;;;;;;5007432;28;20480;-84
2022/08/26 02:34:13;;;;;;;10.27;5.50;;;17.30;99.90;;;;;;4991520;28;20393;-83
2022/08/26 02:36:42;;;;;;;12.35;5.47;;;17.20;99.90;;;;;;4991192;28;20412;-83
2022/08/26 02:39:09;;;;;;;9.55;6.05;;;17.30;99.90;;;;;;4992748;28;20385;-83
2022/08/26 02:41:38;;;;;;;10.47;5.07;;;17.20;99.90;;;;;;4990916;28;20401;-83
2022/08/26 02:44:12;;;;;;;7.70;5.50;;;17.30;99.90;;;;;;4981112;28;20949;-85
2022/08/26 02:46:40;;;;;;;11.10;5.60;;;17.30;99.90;;;;;;4987754;28;20439;-85
2022/08/26 02:49:15;;;;;;;9.52;5.97;;;17.30;99.90;;;;;;4982952;28;20932;-84
2022/08/26 02:51:43;;;;;;;7.47;5.70;;;17.20;99.90;;;;;;5006168;28;20405;-84
2022/08/26 02:54:12;;;;;;;8.65;5.38;;;17.20;99.90;;;;;;4988354;28;20415;-83
2022/08/26 02:56:40;;;;;;;8.85;5.50;;;17.20;99.90;;;;;;4991877;28;20405;-84
2022/08/26 02:59:08;;;;;;;10.00;5.10;;;17.30;99.90;;;;;;4991929;28;20807;-82
2022/08/26 03:01:35;;;;;;;11.80;5.90;;;17.30;99.90;;;;;;5005750;28;20974;-83
2022/08/26 03:04:05;;;;;;;11.90;5.97;;;17.30;99.90;;;;;;4991722;28;20447;-84
2022/08/26 03:06:33;;;;;;;10.65;6.28;;;17.20;99.90;;;;;;4990403;28;20780;-84
2022/08/26 03:09:04;;;;;;;10.35;6.40;;;17.20;99.90;;;;;;5005767;28;20416;-84
2022/08/26 03:11:32;;;;;;;8.32;5.53;;;17.20;99.90;;;;;;4991825;28;20910;-83
2022/08/26 03:14:00;;;;;;;11.25;5.60;;;17.10;99.90;;;;;;4990929;28;20389;-83
2022/08/26 03:16:35;;;;;;;8.00;5.70;;;17.10;99.90;;;;;;4990535;28;20393;-83
2022/08/26 03:19:05;;;;;;;9.73;6.90;;;17.00;99.90;;;;;;4991661;28;20435;-84
2022/08/26 03:21:35;;;;;;;8.18;6.85;;;17.10;99.90;;;;;;4991610;28;20463;-83
2022/08/26 03:24:04;;;;;;;7.57;6.13;;;17.00;99.90;;;;;;4990572;28;20401;-83
2022/08/26 03:26:32;;;;;;;10.20;7.15;;;17.00;99.90;;;;;;4989473;28;20910;-84
2022/08/26 03:31:50;;;;;;;9.40;7.20;;;17.00;99.90;;;;;;4989886;28;20392;-83
2022/08/26 03:34:18;;;;;;;7.68;6.70;;;17.00;99.90;;;;;;4974216;28;20412;-83
2022/08/26 03:36:49;;;;;;;10.27;6.97;;;17.00;99.90;;;;;;4990426;28;20405;-84
2022/08/26 03:39:17;;;;;;;6.50;4.87;;;17.00;99.90;;;;;;4997258;28;20760;-84
2022/08/26 03:41:45;;;;;;;7.68;5.13;;;17.10;99.90;;;;;;4984944;28;20445;-83
2022/08/26 03:44:13;;;;;;;8.55;5.93;;;17.10;99.90;;;;;;5003630;28;20828;-83
2022/08/26 03:46:40;;;;;;;6.85;5.93;;;17.10;99.90;;;;;;4991513;28;20883;-84
2022/08/26 03:49:11;;;;;;;10.83;6.60;;;17.00;99.90;;;;;;5007081;28;20780;-85
2022/08/26 03:51:41;;;;;;;9.83;6.70;;;17.00;99.90;;;;;;4990051;28;20408;-84
2022/08/26 03:54:10;;;;;;;8.57;5.60;;;17.00;99.90;;;;;;5006359;28;20408;-83
2022/08/26 03:56:38;;;;;;;6.07;5.47;;;17.00;99.90;;;;;;4998800;28;20877;-83
2022/08/26 03:59:06;;;;;;;13.47;5.53;;;17.00;99.90;;;;;;4991307;28;20436;-82
2022/08/26 04:01:34;;;;;;;5.47;4.43;;;16.90;99.90;;;;;;4989969;28;20456;-84
2022/08/26 04:04:02;;;;;;;6.22;5.03;;;16.90;99.90;;;;;;4988459;28;20925;-82
2022/08/26 04:06:43;;;;;;;5.50;4.68;;;16.90;99.90;;;;;;4989826;28;20768;-83
2022/08/26 04:09:18;;;;;;;6.13;4.93;;;17.00;99.90;;;;;;4989757;28;20412;-83
2022/08/26 04:11:48;;;;;;;7.70;5.70;;;17.00;99.90;;;;;;4981678;28;20491;-83
2022/08/26 04:14:20;;;;;;;6.30;5.40;;;16.90;99.90;;;;;;4987843;28;20455;-84
2022/08/26 04:16:49;;;;;;;7.53;6.22;;;16.80;99.90;;;;;;5004947;28;20425;-84
2022/08/26 04:19:18;;;;;;;14.65;5.38;;;16.90;99.90;;;;;;4983441;28;20865;-83
2022/08/26 04:21:47;;;;;;;6.35;5.15;;;16.80;99.90;;;;;;4994705;28;20431;-82
2022/08/26 04:24:16;;;;;;;8.60;6.10;;;16.80;99.90;;;;;;4993334;28;20401;-84
2022/08/26 04:26:44;;;;;;;15.27;6.22;;;16.90;99.90;;;;;;5009783;28;20403;-84
2022/08/26 04:29:22;;;;;;;6.78;5.22;;;16.80;99.90;;;;;;4991927;28;20415;-84
2022/08/26 04:31:53;;;;;;;7.43;6.10;;;16.80;99.90;;;;;;4992955;28;20391;-83
2022/08/26 04:34:23;;;;;;;8.13;6.50;;;16.80;99.90;;;;;;4990218;28;20420;-84
2022/08/26 04:36:55;;;;;;;8.07;6.35;;;16.90;99.90;;;;;;5005537;28;20488;-85
2022/08/26 04:39:23;;;;;;;5.30;4.80;;;16.80;99.90;;;;;;4994390;28;20407;-84
2022/08/26 04:41:54;;;;;;;5.47;4.60;;;16.80;99.90;;;;;;5011005;28;20420;-83
2022/08/26 04:44:26;;;;;;;7.07;6.38;;;16.80;99.90;;;;;;4991949;28;20434;-83
2022/08/26 04:46:55;;;;;;;5.13;4.63;;;16.80;99.90;;;;;;5008930;28;20420;-84
2022/08/26 04:49:24;;;;;;;7.78;5.80;;;16.90;99.90;;;;;;4993817;28;20883;-83
2022/08/26 04:51:53;;;;;;;8.05;7.25;;;16.90;99.90;;;;;;5003697;28;20400;-85
2022/08/26 04:54:22;;;;;;;12.93;6.18;;;16.90;99.90;;;;;;4986916;28;20408;-83
2022/08/26 04:56:51;;;;;;;13.13;7.63;;;16.90;99.90;;;;;;4993840;28;20900;-83
2022/08/26 04:59:19;;;;;;;7.45;6.20;;;16.80;99.90;;;;;;4993821;28;20455;-84
2022/08/26 05:01:50;;;;;;;9.10;7.10;;;16.90;99.90;;;;;;4994370;28;20503;-83
2022/08/26 05:04:19;;;;;;;9.00;7.57;;;16.90;99.90;;;;;;5000372;28;20405;-83
2022/08/26 05:06:48;;;;;;;11.02;6.82;;;17.00;99.90;;;;;;5008638;28;20431;-83
2022/08/26 05:09:19;;;;;;;8.23;7.38;;;16.90;99.90;;;;;;5008651;28;20405;-84
2022/08/26 05:11:48;;;;;;;11.77;6.55;;;16.90;99.90;;;;;;4989899;28;20489;-83
2022/08/26 05:14:21;;;;;;;9.67;7.30;;;16.90;99.90;;;;;;5008404;28;20443;-84
2022/08/26 05:16:50;;;;;;;9.65;8.65;;;17.00;99.90;;;;;;4968617;28;20413;-85
2022/08/26 05:19:18;;;;;;;6.90;6.22;;;17.00;99.90;;;;;;5008602;28;20416;-83
2022/08/26 05:21:48;;;;;;;8.70;7.80;;;17.00;99.90;;;;;;4988592;28;20386;-84
2022/08/26 05:24:16;;;;;;;8.30;7.38;;;17.00;99.90;;;;;;4993034;28;20520;-84
2022/08/26 05:26:46;;;;;;;8.57;7.35;;;17.00;99.90;;;;;;4995783;28;20405;-83
2022/08/26 05:29:14;;;;;;;9.17;7.97;;;17.00;99.90;;;;;;4988846;28;20407;-84
2022/08/26 05:31:43;;;;;;;10.18;7.38;;;17.10;99.90;;;;;;4996664;28;20397;-84
2022/08/26 05:34:11;;;;;;;9.50;7.93;;;17.10;99.90;;;;;;4976531;28;20755;-83
2022/08/26 05:36:39;;;;;;;8.48;7.47;;;17.10;99.90;;;;;;4989692;28;20400;-85
2022/08/26 05:39:07;;;;;;;10.75;7.50;;;17.20;99.90;;;;;;4993764;28;20451;-84
2022/08/26 05:41:39;;;;;;;9.50;7.50;;;17.20;99.90;;;;;;5008667;28;20848;-85
2022/08/26 05:44:11;;;;;;;9.82;8.15;;;17.20;99.90;;;;;;4993377;28;20408;-84
2022/08/26 05:46:41;;;;;;;10.75;7.75;;;17.20;99.90;;;;;;5008455;28;20413;-84
2022/08/26 05:49:12;;;;;;;10.75;8.80;;;17.20;99.90;;;;;;4993601;28;20491;-84
2022/08/26 05:51:43;;;;;;;10.07;8.45;;;17.10;99.90;;;;;;4993436;28;20493;-84
2022/08/26 05:54:13;;;;;;;8.30;7.13;;;17.20;99.90;;;;;;4955932;28;20403;-85
2022/08/26 05:56:49;;;;;;;11.50;8.52;;;17.30;99.90;;;;;;4971840;28;20430;-84
2022/08/26 05:59:18;;;;;;;9.15;7.75;;;17.30;99.90;;;;;;4972842;28;20444;-85
2022/08/26 06:01:53;;;;;;;8.95;7.57;;;17.30;99.90;;;;;;4972730;28;20406;-83
2022/08/26 06:04:24;;;;;;;9.67;7.73;;;17.30;99.90;;;;;;4973060;28;20449;-83
2022/08/26 06:06:54;;;;;;;11.00;8.55;;;17.40;99.90;;;;;;4953426;28;20416;-84
2022/08/26 06:09:23;;;;;;;10.35;8.88;;;17.40;99.90;;;;;;4972677;28;20414;-85
2022/08/26 06:11:50;;;;;;;12.27;9.40;;;17.40;99.90;;;;;;4964275;28;20497;-84
2022/08/26 06:14:19;;;;;;;11.47;9.33;;;17.30;99.90;;;;;;4972629;28;20458;-85
2022/08/26 06:16:47;;;;;;;10.30;8.50;;;17.30;99.90;;;;;;4987351;28;20434;-84
2022/08/26 06:19:16;;;;;;;11.27;9.63;;;17.40;99.90;;;;;;4972600;28;20514;-84
2022/08/26 06:21:46;;;;;;;9.90;8.60;;;17.30;99.90;;;;;;4987495;28;20394;-84
2022/08/26 06:27:12;;;;;;;12.07;9.80;;;17.40;99.90;;;;;;4971032;28;20411;-84
2022/08/26 06:29:41;;;;;;;11.27;9.00;;;17.40;99.90;;;;;;4971365;28;20430;-84
2022/08/26 06:32:09;;;;;;;10.73;9.18;;;17.40;99.90;;;;;;4971519;28;20390;-83
2022/08/26 06:34:37;;;;;;;10.47;8.70;;;17.30;99.90;;;;;;4971438;28;20395;-84
2022/08/26 06:37:05;;;;;;;10.40;8.73;;;17.30;99.90;;;;;;4970013;28;20399;-84
2022/08/26 06:39:32;;;;;;;10.30;8.02;;;17.30;99.90;;;;;;4954012;28;20437;-84
2022/08/26 06:42:01;;;;;;;9.70;7.93;;;17.30;99.90;;;;;;4965516;28;20412;-83
2022/08/26 06:44:33;;;;;;;10.48;8.40;;;17.30;99.90;;;;;;4970915;28;20416;-85
2022/08/26 06:47:01;;;;;;;11.88;8.75;;;17.30;99.90;;;;;;4972473;28;20410;-85
2022/08/26 06:49:30;;;;;;;9.55;7.60;;;17.40;99.90;;;;;;4983710;28;20436;-85
2022/08/26 06:52:03;;;;;;;8.43;7.07;;;17.40;99.90;;;;;;4916975;28;1570490;-83
2022/08/26 06:54:31;;;;;;;10.20;8.00;;;17.40;99.90;;;;;;4991253;28;20435;-84
2022/08/26 06:56:59;;;;;;;8.88;7.97;;;17.40;99.90;;;;;;4974951;28;20455;-85
2022/08/26 06:59:29;;;;;;;9.93;8.35;;;17.40;99.90;;;;;;4975098;28;21002;-84
2022/08/26 07:01:57;;;;;;;9.17;7.40;;;17.40;99.90;;;;;;5007235;28;20404;-85
2022/08/26 07:04:26;;;;;;;10.48;7.85;;;17.40;99.90;;;;;;4989037;28;20413;-85
2022/08/26 07:06:55;;;;;;;9.25;7.40;;;17.50;99.90;;;;;;4986397;28;20439;-85
2022/08/26 07:09:26;;;;;;;10.63;8.00;;;17.50;99.90;;;;;;5000741;28;20409;-85
2022/08/26 07:11:55;;;;;;;11.95;7.82;;;17.40;99.90;;;;;;4986971;28;20496;-84
2022/08/26 07:14:24;;;;;;;9.40;7.33;;;17.50;99.90;;;;;;4994592;28;20464;-82
2022/08/26 07:16:53;;;;;;;10.30;7.88;;;17.60;99.90;;;;;;4989591;28;20404;-85
2022/08/26 07:19:22;;;;;;;10.75;8.05;;;17.60;99.90;;;;;;5007094;28;20814;-86
2022/08/26 07:22:01;;;;;;;8.60;7.00;;;17.60;99.90;;;;;;4989872;28;20473;-86
2022/08/26 07:24:32;;;;;;;9.93;6.85;;;17.70;99.90;;;;;;4990791;28;20400;-85
2022/08/26 07:27:06;;;;;;;10.57;7.70;;;17.70;99.90;;;;;;4991927;28;20404;-85
2022/08/26 07:29:36;;;;;;;10.20;7.28;;;17.70;99.90;;;;;;4990778;28;20419;-86
2022/08/26 07:32:04;;;;;;;10.32;8.07;;;17.70;99.90;;;;;;4991118;28;20755;-85
2022/08/26 07:34:32;;;;;;;11.55;8.80;;;17.80;99.90;;;;;;4991862;28;20895;-86
2022/08/26 07:37:00;;;;;;;11.35;8.77;;;17.70;99.90;;;;;;4991810;28;20484;-84
2022/08/26 07:39:29;;;;;;;9.05;7.68;;;17.70;99.90;;;;;;4991809;28;20499;-85
2022/08/26 07:42:00;;;;;;;10.73;8.60;;;17.80;99.90;;;;;;4991737;28;20695;-85
2022/08/26 07:44:34;;;;;;;11.23;9.13;;;17.70;99.90;;;;;;5006456;28;20495;-86
2022/08/26 07:47:02;;;;;;;11.20;9.07;;;17.70;99.90;;;;;;4989505;28;20414;-85
2022/08/26 07:49:50;;;;;;;12.90;9.43;;;17.70;99.90;;;;;;5000897;28;20767;-87
2022/08/26 07:52:19;;;;;;;11.73;9.07;;;17.70;99.90;;;;;;4987740;28;20394;-85
2022/08/26 07:54:56;;;;;;;11.57;9.25;;;17.70;99.90;;;;;;4990533;28;20399;-86
2022/08/26 07:57:26;;;;;;;11.68;9.15;;;17.70;99.90;;;;;;4994208;28;20409;-86
2022/08/26 07:59:54;;;;;;;10.10;8.70;;;17.70;99.90;;;;;;5010676;28;20404;-87
2022/08/26 08:02:23;;;;;;;12.43;9.23;;;17.70;99.90;;;;;;4978238;28;20550;-84
2022/08/26 08:04:52;;;;;;;12.50;10.25;;;17.70;99.90;;;;;;4994247;28;20478;-86
2022/08/26 08:07:20;;;;;;;15.23;11.40;;;17.80;99.90;;;;;;4995359;28;20412;-87
2022/08/26 08:10:09;;;;;;;14.30;11.53;;;17.70;99.90;;;;;;4993947;28;20771;-85
2022/08/26 08:12:38;;;;;;;15.15;11.95;;;17.70;99.90;;;;;;4993781;28;20706;-86
2022/08/26 08:15:08;;;;;;;16.50;12.35;;;17.70;99.90;;;;;;4976453;28;20960;-86
2022/08/26 08:17:37;;;;;;;16.23;13.63;;;17.70;99.90;;;;;;4995255;28;20411;-87
2022/08/26 08:20:07;;;;;;;17.77;13.00;;;17.70;99.90;;;;;;4973476;28;20406;-86
2022/08/26 08:22:35;;;;;;;16.00;12.45;;;17.70;99.90;;;;;;4981726;28;20407;-85
2022/08/26 08:25:04;;;;;;;14.50;12.00;;;17.70;99.90;;;;;;4995260;28;20413;-86
2022/08/26 08:27:38;;;;;;;15.30;12.75;;;17.70;99.90;;;;;;4990449;28;20950;-85
2022/08/26 08:30:07;;;;;;;16.20;12.32;;;17.70;99.90;;;;;;4993835;28;20472;-84
2022/08/26 08:32:37;;;;;;;16.47;12.73;;;17.80;99.90;;;;;;5001257;28;20923;-87
2022/08/26 08:35:07;;;;;;;16.92;12.75;;;17.80;99.90;;;;;;4992695;28;20405;-86
2022/08/26 08:37:38;;;;;;;15.48;13.32;;;17.80;99.90;;;;;;4994925;28;20500;-87
2022/08/26 08:40:07;;;;;;;16.23;13.07;;;17.80;99.90;;;;;;4995233;28;20397;-86
2022/08/26 08:42:52;;;;;;;17.88;14.25;;;17.80;99.90;;;;;;4995226;28;20384;-86
2022/08/26 08:45:34;;;;;;;15.77;13.02;;;17.80;99.90;;;;;;4994939;28;20396;-85
2022/08/26 08:48:11;;;;;;;16.45;13.25;;;17.90;99.90;;;;;;4994679;28;20864;-86
2022/08/26 08:50:53;;;;;;;16.63;13.07;;;17.90;99.90;;;;;;4993391;28;20907;-86
2022/08/26 08:53:43;;;;;;;14.35;11.95;;;17.90;99.90;;;;;;4992735;28;20451;-87
2022/08/26 08:56:27;;;;;;;13.27;11.20;;;17.90;99.90;;;;;;4990935;28;20418;-86
2022/08/26 08:59:13;;;;;;;13.40;10.40;;;17.90;99.90;;;;;;4991340;28;20904;-86
2022/08/26 09:02:08;;;;;;;16.98;12.32;;;17.90;99.90;;;;;;4991968;28;20410;-86
2022/08/26 09:05:09;;;;;;;15.10;12.80;;;17.90;99.90;;;;;;4990338;28;20402;-85
2022/08/26 09:08:08;;;;;;;14.18;12.23;;;17.80;99.90;;;;;;4985958;28;20412;-85
2022/08/26 09:10:39;;;;;;;15.00;11.77;;;17.70;99.90;;;;;;4992537;28;20412;-85
2022/08/26 09:13:16;;;;;;;12.60;10.00;;;17.70;99.90;;;;;;4999815;28;20428;-85
2022/08/26 09:16:07;;;;;;;12.55;10.23;;;17.90;99.90;;;;;;4994204;28;20405;-87
2022/08/26 09:19:04;;;;;;;12.55;11.05;;;17.90;99.90;;;;;;4993806;28;20475;-85
2022/08/26 09:21:32;;;;;;;12.57;10.53;;;17.90;99.90;;;;;;4994645;28;20914;-85
2022/08/26 09:24:00;;;;;;;13.75;10.65;;;18.00;99.90;;;;;;4993326;28;20401;-85
2022/08/26 09:26:51;;;;;;;11.02;9.57;;;18.00;99.90;;;;;;4993277;28;21034;-87
2022/08/26 09:29:23;;;;;;;13.35;10.90;;;18.00;99.90;;;;;;4993381;28;20399;-86
2022/08/26 09:32:12;;;;;;;11.70;9.93;;;18.10;99.90;;;;;;4993386;28;20431;-87
2022/08/26 09:35:15;;;;;;;12.35;8.88;;;18.20;99.90;;;;;;4993346;28;20420;-85
2022/08/26 09:37:47;;;;;;;11.48;9.57;;;18.20;99.90;;;;;;4992156;28;20477;-87
2022/08/26 09:40:28;;;;;;;12.83;10.30;;;18.30;99.90;;;;;;4994382;28;20400;-86
2022/08/26 09:43:20;;;;;;;11.77;8.93;;;18.40;99.90;;;;;;4993177;28;20424;-86
2022/08/26 09:45:55;;;;;;;11.33;9.00;;;18.40;99.90;;;;;;4993126;28;20427;-87
2022/08/26 09:48:36;;;;;;;11.73;8.65;;;18.40;99.90;;;;;;4992855;28;20788;-86
2022/08/26 09:51:33;;;;;;;10.23;9.13;;;18.40;99.90;;;;;;4993751;28;20408;-87
2022/08/26 09:54:02;;;;;;;10.15;8.57;;;18.50;99.90;;;;;;4991425;28;20906;-85
2022/08/26 09:56:37;;;;;;;25.17;8.65;;;18.70;99.90;;;;;;4986859;28;20411;-85
2022/08/26 09:59:10;;;;;;;10.90;7.72;;;18.70;99.90;;;;;;4993765;28;20385;-87
2022/08/26 10:01:41;;;;;;;10.13;7.95;;;18.70;99.90;;;;;;4991245;28;20404;-85
2022/08/26 10:04:21;;;;;;;10.32;8.23;;;18.90;99.90;;;;;;4992614;28;20393;-86
2022/08/26 10:07:03;;;;;;;10.83;8.23;;;19.00;99.90;;;;;;4993761;28;20750;-87
2022/08/26 10:09:36;;;;;;;11.23;7.38;;;19.10;99.90;;;;;;4992470;28;20403;-87
2022/08/26 10:12:16;;;;;;;8.33;7.23;;;19.20;99.90;;;;;;4993531;28;20488;-87
2022/08/26 10:14:48;;;;;;;10.63;7.77;;;19.20;99.90;;;;;;4993664;28;20385;-86
2022/08/26 10:17:25;;;;;;;10.35;7.63;;;19.30;99.90;;;;;;4992963;28;20973;-86
2022/08/26 10:20:10;;;;;;;10.18;6.78;;;19.40;99.90;;;;;;4993257;28;20436;-87
2022/08/26 10:23:17;;;;;;;10.03;7.00;;;19.50;99.90;;;;;;4993468;28;20416;-85
2022/08/26 10:25:52;;;;;;;10.13;6.83;;;19.60;99.90;;;;;;4992112;28;20404;-86
2022/08/26 10:28:47;;;;;;;9.60;6.05;;;19.70;99.90;;;;;;4993227;28;20934;-86
2022/08/26 10:31:56;;;;;;;9.23;6.70;;;19.70;99.90;;;;;;4993462;28;20500;-86
2022/08/26 10:34:30;;;;;;;7.82;6.53;;;19.80;99.90;;;;;;4972647;28;20463;-88
2022/08/26 10:37:12;;;;;;;8.13;6.17;;;19.90;99.90;;;;;;4992161;28;20775;-87
2022/08/26 10:39:42;;;;;;;7.47;6.00;;;19.90;99.90;;;;;;4993256;28;20396;-86
2022/08/26 10:42:37;;;;;;;10.63;6.47;;;20.10;99.90;;;;;;4976023;28;20447;-87
2022/08/26 10:45:24;;;;;;;10.43;6.55;;;20.20;99.90;;;;;;4992405;28;20766;-86
2022/08/26 10:47:59;;;;;;;8.32;5.85;;;20.20;99.90;;;;;;4991830;28;20397;-88
2022/08/26 10:50:33;;;;;;;7.45;5.82;;;20.30;99.90;;;;;;4991926;28;20509;-86
2022/08/26 10:53:19;;;;;;;8.97;6.27;;;20.60;99.90;;;;;;5007935;28;20417;-86
2022/08/26 10:56:13;;;;;;;8.00;5.70;;;20.70;99.90;;;;;;4991677;28;20396;-85
2022/08/26 10:58:57;;;;;;;9.13;6.28;;;20.70;99.90;;;;;;4991906;28;20420;-87
2022/08/26 11:01:49;;;;;;;8.57;5.72;;;20.80;99.90;;;;;;4992898;28;20448;-86
2022/08/26 11:04:34;;;;;;;8.30;6.30;;;20.80;99.90;;;;;;4991569;28;20417;-86
2022/08/26 11:07:35;;;;;;;7.88;6.20;;;20.80;99.90;;;;;;4992826;28;20397;-87
2022/08/26 11:10:08;;;;;;;7.28;5.82;;;21.00;99.90;;;;;;4991583;28;20447;-87
2022/08/26 11:12:35;;;;;;;8.15;6.05;;;21.10;99.90;;;;;;4992663;28;20392;-87
2022/08/26 11:15:11;;;;;;;8.00;5.40;;;21.10;99.90;;;;;;4975589;28;20397;-87
2022/08/26 11:17:46;;;;;;;8.27;5.22;;;21.20;99.90;;;;;;4991521;28;20420;-88
2022/08/26 11:20:28;;;;;;;7.37;5.23;;;21.10;99.90;;;;;;4992584;28;20388;-87
2022/08/26 11:23:19;;;;;;;9.15;4.97;;;21.20;99.90;;;;;;5007773;28;20389;-88
2022/08/26 11:26:08;;;;;;;6.90;4.97;;;21.30;99.90;;;;;;4992262;28;20424;-87
2022/08/26 11:28:49;;;;;;;7.07;5.15;;;21.40;99.90;;;;;;4995282;28;20867;-87
2022/08/26 11:31:18;;;;;;;7.63;5.47;;;21.40;99.90;;;;;;4996451;28;20460;-86
2022/08/26 11:33:50;;;;;;;8.52;5.43;;;21.60;99.90;;;;;;4979575;28;20480;-88
2022/08/26 11:36:54;;;;;;;7.00;5.07;;;21.80;99.90;;;;;;4996436;28;20875;-87
2022/08/26 11:39:27;;;;;;;6.20;4.60;;;21.90;99.90;;;;;;4995201;28;20892;-87
2022/08/26 11:42:20;;;;;;;6.22;5.07;;;21.80;99.90;;;;;;4996473;28;20464;-83
2022/08/26 11:44:49;;;;;;;6.38;4.97;;;21.90;99.90;;;;;;4996443;28;20416;-87
2022/08/26 11:47:30;;;;;;;6.72;4.65;;;22.10;99.90;;;;;;4996259;28;20953;-87
2022/08/26 11:50:14;;;;;;;6.15;4.00;;;22.30;99.90;;;;;;4996159;28;20392;-85
2022/08/26 11:52:57;;;;;;;4.38;3.90;;;22.30;99.90;;;;;;4995932;28;20961;-87
2022/08/26 11:55:26;;;;;;;5.73;4.50;;;22.40;99.90;;;;;;5011344;28;20400;-87
2022/08/26 11:57:59;;;;;;;4.72;4.18;;;22.40;99.90;;;;;;4995128;28;20389;-85
2022/08/26 12:00:31;;;;;;;6.90;4.40;;;22.60;99.90;;;;;;5007769;28;20485;-86
2022/08/26 12:03:05;;;;;;;4.22;3.70;;;22.80;99.90;;;;;;4991521;28;20482;-86
2022/08/26 12:05:45;;;;;;;6.70;4.40;;;22.80;99.90;;;;;;4975401;28;20398;-85
2022/08/26 12:08:17;;;;;;;6.30;4.40;;;22.90;99.90;;;;;;4976476;28;20469;-87
2022/08/26 12:10:47;;;;;;;7.38;4.50;;;22.90;99.90;;;;;;4975378;28;20830;-87
2022/08/26 12:13:24;;;;;;;5.80;4.45;;;22.90;99.90;;;;;;4991500;28;20391;-86
2022/08/26 12:15:58;;;;;;;7.07;4.20;;;23.00;99.90;;;;;;4991391;28;20932;-87
2022/08/26 12:18:31;;;;;;;6.22;4.00;;;23.00;99.90;;;;;;4991394;28;20409;-87
2022/08/26 12:21:15;;;;;;;6.88;3.85;;;23.00;99.90;;;;;;4975051;28;20390;-88
2022/08/26 12:23:46;;;;;;;10.10;4.43;;;23.00;99.90;;;;;;4974979;28;20430;-87
2022/08/26 12:26:29;;;;;;;6.50;4.40;;;23.10;99.90;;;;;;4991407;28;20398;-85
2022/08/26 12:28:57;;;;;;;6.03;4.57;;;23.20;99.90;;;;;;4975985;28;20505;-87
2022/08/26 12:31:38;;;;;;;5.57;4.47;;;23.30;99.90;;;;;;4976097;28;20414;-86
2022/08/26 12:34:16;;;;;;;5.22;4.55;;;23.30;99.90;;;;;;4975954;28;20734;-87
2022/08/26 12:36:52;;;;;;;7.13;4.80;;;23.40;99.90;;;;;;4974888;28;20765;-87
2022/08/26 12:39:31;;;;;;;6.03;4.40;;;23.40;99.90;;;;;;4990242;28;20394;-87
2022/08/26 12:42:19;;;;;;;4.78;4.18;;;23.50;99.90;;;;;;4990987;28;20749;-87
2022/08/26 12:44:48;;;;;;;5.75;4.80;;;23.60;99.90;;;;;;4990801;28;20432;-87
2022/08/26 12:47:34;;;;;;;7.18;4.57;;;23.70;99.90;;;;;;4975350;28;20462;-87
2022/08/26 12:50:22;;;;;;;7.68;4.47;;;24.00;99.90;;;;;;4990737;28;20478;-88
2022/08/26 12:53:14;;;;;;;6.25;4.90;;;24.10;99.90;;;;;;4990601;28;20491;-87
2022/08/26 12:55:48;;;;;;;7.07;4.75;;;24.30;99.90;;;;;;4975784;28;20393;-88
2022/08/26 12:58:22;;;;;;;8.35;4.90;;;24.20;99.90;;;;;;4975577;28;20430;-87
2022/08/26 13:01:07;;;;;;;7.97;4.70;;;24.40;99.90;;;;;;4975630;28;20718;-87
2022/08/26 13:03:44;;;;;;;6.95;4.80;;;24.40;99.90;;;;;;4975612;28;20399;-87
2022/08/26 13:06:21;;;;;;;7.68;4.80;;;24.40;99.90;;;;;;4974340;28;20414;-85
2022/08/26 13:09:04;;;;;;;7.07;4.90;;;24.50;99.90;;;;;;4974338;28;20399;-87
2022/08/26 13:11:38;;;;;;;7.10;4.60;;;24.40;99.90;;;;;;4990288;28;20457;-86
2022/08/26 13:14:09;;;;;;;7.53;5.22;;;24.30;99.90;;;;;;4974224;28;20394;-87
2022/08/26 13:16:40;;;;;;;9.67;5.13;;;24.50;99.90;;;;;;4975298;28;20448;-86
2022/08/26 13:19:11;;;;;;;6.05;4.63;;;24.50;99.90;;;;;;4990155;28;20497;-85
2022/08/26 13:21:54;;;;;;;5.70;4.90;;;24.60;99.90;;;;;;4975179;28;20391;-88